createdAt,value
2022-12-20T00:01:57.214Z,28.40
2022-12-20T00:04:26.297Z,28.50
2022-12-20T00:06:55.150Z,31.00
2022-12-20T00:09:25.572Z,32.90
2022-12-20T00:11:54.152Z,31.40
2022-12-20T00:14:22.864Z,30.00
2022-12-20T00:16:51.532Z,29.40
2022-12-20T00:19:20.317Z,29.10
2022-12-20T00:21:49.010Z,30.90
2022-12-20T00:24:23.900Z,34.00
2022-12-20T00:26:54.579Z,28.20
2022-12-20T00:29:23.191Z,28.00
2022-12-20T00:31:52.075Z,30.80
2022-12-20T00:34:21.445Z,33.50
2022-12-20T00:36:50.125Z,32.60
2022-12-20T00:39:18.561Z,27.10
2022-12-20T00:41:47.327Z,27.80
2022-12-20T00:44:15.772Z,27.70
2022-12-20T00:46:44.436Z,29.70
2022-12-20T00:49:13.247Z,29.40
2022-12-20T00:51:41.843Z,32.30
2022-12-20T00:54:10.561Z,29.30
2022-12-20T00:56:39.030Z,29.20
2022-12-20T00:59:07.882Z,27.00
2022-12-20T01:01:36.451Z,34.20
2022-12-20T01:04:05.293Z,28.30
2022-12-20T01:06:33.835Z,29.80
2022-12-20T01:09:02.443Z,32.60
2022-12-20T01:11:34.802Z,32.70
2022-12-20T01:14:09.246Z,32.40
2022-12-20T01:16:41.424Z,26.40
2022-12-20T01:19:14.171Z,30.20
2022-12-20T01:21:46.308Z,29.10
2022-12-20T01:24:17.843Z,33.10
2022-12-20T01:26:47.325Z,30.40
2022-12-20T01:29:16.319Z,34.60
2022-12-20T01:31:45.437Z,30.20
2022-12-20T01:34:14.204Z,30.10
2022-12-20T01:36:42.953Z,30.10
2022-12-20T01:39:16.783Z,26.70
2022-12-20T01:41:46.260Z,28.30
2022-12-20T01:44:17.730Z,26.90
2022-12-20T01:46:48.890Z,26.20
2022-12-20T01:49:30.789Z,29.00
2022-12-20T01:52:12.370Z,29.30
2022-12-20T01:54:50.076Z,27.30
2022-12-20T01:57:27.744Z,31.90
2022-12-20T01:59:57.848Z,30.50
2022-12-20T02:02:27.529Z,26.00
2022-12-20T02:04:56.483Z,31.40
2022-12-20T02:07:28.657Z,35.80
2022-12-20T02:09:59.586Z,29.50
2022-12-20T02:12:39.851Z,30.30
2022-12-20T02:15:14.292Z,28.80
2022-12-20T02:18:13.553Z,29.90
2022-12-20T02:21:06.281Z,29.40
2022-12-20T02:24:19.854Z,33.20
2022-12-20T02:27:27.322Z,30.30
2022-12-20T02:30:19.012Z,33.10
2022-12-20T02:32:55.652Z,29.90
2022-12-20T02:35:30.582Z,30.20
2022-12-20T02:38:04.658Z,34.20
2022-12-20T02:40:42.276Z,31.00
2022-12-20T02:43:32.563Z,34.60
2022-12-20T02:46:02.995Z,32.10
2022-12-20T02:48:36.338Z,33.00
2022-12-20T02:51:06.639Z,30.60
2022-12-20T02:53:38.176Z,31.70
2022-12-20T02:56:31.815Z,27.90
2022-12-20T02:59:29.785Z,25.90
2022-12-20T03:01:59.497Z,30.30
2022-12-20T03:04:31.998Z,31.60
2022-12-20T03:07:09.042Z,33.30
2022-12-20T03:09:41.738Z,27.80
2022-12-20T03:12:12.264Z,32.20
2022-12-20T03:14:41.040Z,31.70
2022-12-20T03:17:11.247Z,29.00
2022-12-20T03:19:39.967Z,28.80
2022-12-20T03:22:08.944Z,30.70
2022-12-20T03:24:37.732Z,29.00
2022-12-20T03:27:09.606Z,33.10
2022-12-20T03:29:38.483Z,34.90
2022-12-20T03:32:07.475Z,31.20
2022-12-20T03:34:36.160Z,28.30
2022-12-20T03:37:05.366Z,30.40
2022-12-20T03:39:33.945Z,31.90
2022-12-20T03:42:02.935Z,31.20
2022-12-20T03:44:31.691Z,26.70
2022-12-20T03:47:01.158Z,33.50
2022-12-20T03:51:59.421Z,27.50
2022-12-20T03:54:28.081Z,24.10
2022-12-20T03:57:15.735Z,27.50
2022-12-20T03:59:45.174Z,28.70
2022-12-20T04:02:16.360Z,29.10
2022-12-20T04:04:44.980Z,27.90
2022-12-20T04:07:13.652Z,29.60
2022-12-20T04:09:44.177Z,29.70
2022-12-20T04:12:14.912Z,29.00
2022-12-20T04:14:44.223Z,28.10
2022-12-20T04:17:13.189Z,26.30
2022-12-20T04:19:42.200Z,29.30
2022-12-20T04:22:10.916Z,28.70
2022-12-20T04:24:54.525Z,31.40
2022-12-20T04:27:30.169Z,30.20
2022-12-20T04:29:58.753Z,27.00
2022-12-20T04:32:27.337Z,26.50
2022-12-20T04:34:56.023Z,28.10
2022-12-20T04:37:24.713Z,31.60
2022-12-20T04:39:55.883Z,25.00
2022-12-20T04:42:27.606Z,27.80
2022-12-20T04:44:56.522Z,30.20
2022-12-20T04:47:27.962Z,28.40
2022-12-20T04:49:56.857Z,26.70
2022-12-20T04:52:48.011Z,35.40
2022-12-20T04:55:16.948Z,32.60
2022-12-20T04:57:45.957Z,31.20
2022-12-20T05:00:15.700Z,28.40
2022-12-20T05:02:45.994Z,25.10
2022-12-20T05:05:17.490Z,25.70
2022-12-20T05:07:50.260Z,26.50
2022-12-20T05:10:19.184Z,28.30
2022-12-20T05:12:47.747Z,28.40
2022-12-20T05:15:22.835Z,22.60
2022-12-20T05:17:51.445Z,27.70
2022-12-20T05:20:20.213Z,27.20
2022-12-20T05:23:07.937Z,28.40
2022-12-20T05:26:05.594Z,23.40
2022-12-20T05:28:34.932Z,24.80
2022-12-20T05:31:04.015Z,20.30
2022-12-20T05:33:34.500Z,22.30
2022-12-20T05:38:32.183Z,22.50
2022-12-20T05:41:01.528Z,20.50
2022-12-20T05:43:30.731Z,19.80
2022-12-20T05:45:59.219Z,22.80
2022-12-20T05:48:34.432Z,22.60
2022-12-20T05:51:06.293Z,20.10
2022-12-20T05:53:37.956Z,20.30
2022-12-20T05:56:11.419Z,24.70
2022-12-20T05:58:40.541Z,22.90
2022-12-20T06:01:10.859Z,20.00
2022-12-20T06:03:51.379Z,23.70
2022-12-20T06:06:19.952Z,17.70
2022-12-20T06:08:49.506Z,21.90
2022-12-20T06:11:38.921Z,17.80
2022-12-20T06:14:11.072Z,21.10
2022-12-20T06:16:44.631Z,19.00
2022-12-20T06:19:19.418Z,17.90
2022-12-20T06:21:50.661Z,19.60
2022-12-20T06:24:25.443Z,19.10
2022-12-20T06:26:55.012Z,20.10
2022-12-20T06:29:24.909Z,20.60
2022-12-20T06:32:00.212Z,20.30
2022-12-20T06:34:29.286Z,19.80
2022-12-20T06:36:58.003Z,21.00
2022-12-20T06:39:29.684Z,24.40
2022-12-20T06:42:04.941Z,24.10
2022-12-20T06:44:33.617Z,23.80
2022-12-20T06:47:02.881Z,27.00
2022-12-20T06:49:44.620Z,20.50
2022-12-20T06:52:24.557Z,23.80
2022-12-20T06:54:56.248Z,24.10
2022-12-20T06:57:34.398Z,19.80
2022-12-20T07:00:05.657Z,23.20
2022-12-20T07:02:36.602Z,27.10
2022-12-20T07:05:05.969Z,21.50
2022-12-20T07:07:40.189Z,20.90
2022-12-20T07:10:13.743Z,23.10
2022-12-20T07:12:47.487Z,20.90
2022-12-20T07:15:17.576Z,23.00
2022-12-20T07:17:46.176Z,17.40
2022-12-20T07:20:15.155Z,21.30
2022-12-20T07:22:44.695Z,19.00
2022-12-20T07:27:41.958Z,20.40
2022-12-20T07:30:10.936Z,19.60
2022-12-20T07:32:40.705Z,26.50
2022-12-20T07:35:11.625Z,22.50
2022-12-20T07:37:40.623Z,22.00
2022-12-20T07:40:11.875Z,20.00
2022-12-20T07:42:48.016Z,20.50
2022-12-20T07:45:17.273Z,23.70
2022-12-20T07:47:45.751Z,17.00
2022-12-20T07:50:14.893Z,17.70
2022-12-20T07:52:46.914Z,21.50
2022-12-20T07:55:15.652Z,23.10
2022-12-20T07:58:02.282Z,18.50
2022-12-20T08:00:32.031Z,20.00
2022-12-20T08:06:06.123Z,21.40
2022-12-20T08:08:38.610Z,23.10
2022-12-20T08:11:09.827Z,21.00
2022-12-20T08:13:44.404Z,18.20
2022-12-20T08:16:15.074Z,19.20
2022-12-20T08:18:43.677Z,19.20
2022-12-20T08:21:14.851Z,23.50
2022-12-20T08:23:43.494Z,19.30
2022-12-20T08:26:11.927Z,16.10
2022-12-20T08:28:40.920Z,16.60
2022-12-20T08:31:13.436Z,18.70
2022-12-20T08:33:42.255Z,15.90
2022-12-20T08:36:13.329Z,15.80
2022-12-20T08:38:42.193Z,15.10
2022-12-20T08:41:13.652Z,16.10
2022-12-20T08:43:43.565Z,15.00
2022-12-20T08:46:14.444Z,16.30
2022-12-20T08:48:43.155Z,15.80
2022-12-20T08:51:12.727Z,16.70
2022-12-20T08:53:42.213Z,17.50
2022-12-20T08:56:17.216Z,20.10
2022-12-20T08:58:46.590Z,16.20
2022-12-20T09:01:20.589Z,15.00
2022-12-20T09:03:50.130Z,17.70
2022-12-20T09:06:23.324Z,14.10
2022-12-20T09:08:52.472Z,14.80
2022-12-20T09:11:25.041Z,15.00
2022-12-20T09:13:56.840Z,15.10
2022-12-20T09:16:29.736Z,16.40
2022-12-20T09:19:05.518Z,16.20
2022-12-20T09:21:35.554Z,18.30
2022-12-20T09:24:06.704Z,18.80
2022-12-20T09:26:35.580Z,18.70
2022-12-20T09:29:06.003Z,20.80
2022-12-20T09:31:35.127Z,18.30
2022-12-20T09:34:04.605Z,16.00
2022-12-20T09:36:35.349Z,17.10
2022-12-20T09:39:08.586Z,16.30
2022-12-20T09:41:43.916Z,20.00
2022-12-20T09:44:28.037Z,14.70
2022-12-20T09:47:23.566Z,15.50
2022-12-20T09:49:57.039Z,17.00
2022-12-20T09:52:56.232Z,15.20
2022-12-20T09:55:34.517Z,14.40
2022-12-20T09:58:19.347Z,14.70
2022-12-20T10:00:54.215Z,15.10
2022-12-20T10:03:36.538Z,15.60
2022-12-20T10:06:11.361Z,13.00
2022-12-20T10:08:48.382Z,24.40
2022-12-20T10:11:57.214Z,15.70
2022-12-20T10:14:53.538Z,13.70
2022-12-20T10:18:03.858Z,12.10
2022-12-20T10:20:45.040Z,9.80
2022-12-20T10:23:46.969Z,12.00
2022-12-20T10:26:15.706Z,14.20
2022-12-20T10:28:50.672Z,12.00
2022-12-20T10:31:22.996Z,11.80
2022-12-20T10:33:51.723Z,11.70
2022-12-20T10:36:32.007Z,10.60
2022-12-20T10:39:07.958Z,12.50
2022-12-20T10:41:39.965Z,13.80
2022-12-20T10:44:28.753Z,12.60
2022-12-20T10:47:00.600Z,15.20
2022-12-20T10:49:41.367Z,17.40
2022-12-20T10:52:14.431Z,13.00
2022-12-20T10:54:47.738Z,12.50
2022-12-20T10:57:27.938Z,12.60
2022-12-20T11:00:00.757Z,13.20
2022-12-20T11:02:40.545Z,12.80
2022-12-20T11:05:11.725Z,11.00
2022-12-20T11:08:36.106Z,13.10
2022-12-20T11:11:15.292Z,12.50
2022-12-20T11:13:49.248Z,11.70
2022-12-20T11:16:44.920Z,13.80
2022-12-20T11:19:47.870Z,11.70
2022-12-20T11:22:57.054Z,11.30
2022-12-20T11:26:13.223Z,11.90
2022-12-20T11:29:16.635Z,14.10
2022-12-20T11:32:46.480Z,14.20
2022-12-20T11:36:00.581Z,13.20
2022-12-20T11:39:03.816Z,12.80
2022-12-20T11:42:12.001Z,13.00
2022-12-20T11:45:09.771Z,14.20
2022-12-20T11:48:19.845Z,12.20
2022-12-20T11:51:31.312Z,14.50
2022-12-20T11:54:38.062Z,12.40
2022-12-20T11:58:08.975Z,13.90
2022-12-20T12:00:35.599Z,12.60
2022-12-20T12:03:33.360Z,14.00
2022-12-20T12:06:42.362Z,13.80
2022-12-20T12:09:39.063Z,11.70
2022-12-20T12:12:44.461Z,12.90
2022-12-20T12:15:17.061Z,12.20
2022-12-20T12:18:03.872Z,13.40
2022-12-20T12:20:51.279Z,13.20
2022-12-20T12:23:44.620Z,15.60
2022-12-20T12:26:28.462Z,12.30
2022-12-20T12:29:13.524Z,13.80
2022-12-20T12:31:48.581Z,12.10
2022-12-20T12:34:39.199Z,11.90
2022-12-20T12:37:35.410Z,12.80
2022-12-20T12:40:21.947Z,13.70
2022-12-20T12:43:44.333Z,12.90
2022-12-20T12:46:28.168Z,16.20
2022-12-20T12:48:58.750Z,14.70
2022-12-20T12:51:35.159Z,13.80
2022-12-20T12:54:29.424Z,14.00
2022-12-20T12:57:07.051Z,14.70
2022-12-20T12:59:35.764Z,13.30
2022-12-20T13:02:14.601Z,14.10
2022-12-20T13:05:13.103Z,13.00
2022-12-20T13:07:44.048Z,13.10
2022-12-20T13:10:15.418Z,13.70
2022-12-20T13:12:53.372Z,18.80
2022-12-20T13:15:22.775Z,15.00
2022-12-20T13:17:59.078Z,13.80
2022-12-20T13:20:31.532Z,16.70
2022-12-20T13:23:09.695Z,17.50
2022-12-20T13:25:53.220Z,15.90
2022-12-20T13:28:32.559Z,18.00
2022-12-20T13:31:01.328Z,16.00
2022-12-20T13:33:47.980Z,15.30
2022-12-20T13:36:16.751Z,18.80
2022-12-20T13:38:49.615Z,13.90
2022-12-20T13:41:38.731Z,14.80
2022-12-20T13:44:16.865Z,15.00
2022-12-20T13:47:04.086Z,14.80
2022-12-20T13:49:42.591Z,16.10
2022-12-20T13:52:20.843Z,14.10
2022-12-20T13:54:54.665Z,15.10
2022-12-20T13:57:42.177Z,16.30
2022-12-20T14:00:23.483Z,19.70
2022-12-20T14:02:53.806Z,17.30
2022-12-20T14:05:37.564Z,18.20
2022-12-20T14:08:14.492Z,16.70
2022-12-20T14:10:43.430Z,14.40
2022-12-20T14:13:30.086Z,20.00
2022-12-20T14:16:18.012Z,18.20
2022-12-20T14:19:07.689Z,16.80
2022-12-20T14:21:42.992Z,16.80
2022-12-20T14:24:24.770Z,16.70
2022-12-20T14:26:54.364Z,19.30
2022-12-20T14:29:31.575Z,18.30
2022-12-20T14:32:00.198Z,15.30
2022-12-20T14:34:35.420Z,16.20
2022-12-20T14:37:38.564Z,18.40
2022-12-20T14:40:14.509Z,19.00
2022-12-20T14:42:43.157Z,19.10
2022-12-20T14:45:14.676Z,19.00
2022-12-20T14:48:02.049Z,22.30
2022-12-20T14:50:37.664Z,20.30
2022-12-20T14:53:20.384Z,18.70
2022-12-20T14:55:50.217Z,19.40
2022-12-20T14:58:35.029Z,19.40
2022-12-20T15:01:25.456Z,19.50
2022-12-20T15:04:00.227Z,19.10
2022-12-20T15:06:33.157Z,16.70
2022-12-20T15:09:02.257Z,22.20
2022-12-20T15:11:31.599Z,18.50
2022-12-20T15:14:02.092Z,20.70
2022-12-20T15:16:33.616Z,21.10
2022-12-20T15:19:03.402Z,21.30
2022-12-20T15:24:13.637Z,18.50
2022-12-20T15:26:42.721Z,19.30
2022-12-20T15:29:28.907Z,20.40
2022-12-20T15:32:13.912Z,19.10
2022-12-20T15:34:42.652Z,22.60
2022-12-20T15:37:18.829Z,21.80
2022-12-20T15:39:47.931Z,19.80
2022-12-20T15:42:19.925Z,24.10
2022-12-20T15:44:48.926Z,20.50
2022-12-20T15:47:17.720Z,19.60
2022-12-20T15:49:50.643Z,22.60
2022-12-20T15:52:22.204Z,23.20
2022-12-20T15:54:51.171Z,23.50
2022-12-20T15:57:25.374Z,20.20
2022-12-20T16:00:00.434Z,19.90
2022-12-20T16:02:33.122Z,20.90
2022-12-20T16:05:02.271Z,22.60
2022-12-20T16:07:31.342Z,18.30
2022-12-20T16:10:00.118Z,27.10
2022-12-20T16:12:34.685Z,22.40
2022-12-20T16:15:03.790Z,22.80
2022-12-20T16:17:32.405Z,21.90
2022-12-20T16:20:01.998Z,22.40
2022-12-20T16:22:30.641Z,21.50
2022-12-20T16:24:59.262Z,21.90
2022-12-20T16:27:28.009Z,23.80
2022-12-20T16:29:56.913Z,21.70
2022-12-20T16:32:25.587Z,25.40
2022-12-20T16:34:54.179Z,23.00
2022-12-20T16:37:23.501Z,25.20
2022-12-20T16:39:52.208Z,21.80
2022-12-20T16:42:24.802Z,24.90
2022-12-20T16:44:54.627Z,22.70
2022-12-20T16:49:53.561Z,24.30
2022-12-20T16:52:23.251Z,24.40
2022-12-20T16:54:52.083Z,22.70
2022-12-20T16:57:21.832Z,27.40
2022-12-20T16:59:50.681Z,23.80
2022-12-20T17:02:30.008Z,27.50
2022-12-20T17:07:28.331Z,22.60
2022-12-20T17:10:00.243Z,20.80
2022-12-20T17:12:31.096Z,25.10
2022-12-20T17:14:59.759Z,25.40
2022-12-20T17:17:38.078Z,23.80
2022-12-20T17:20:08.134Z,22.90
2022-12-20T17:22:36.810Z,24.90
2022-12-20T17:25:05.813Z,27.00
2022-12-20T17:27:34.562Z,30.50
2022-12-20T17:30:03.144Z,22.50
2022-12-20T17:32:31.764Z,25.50
2022-12-20T17:35:00.746Z,24.50
2022-12-20T17:37:30.315Z,27.10
2022-12-20T17:39:59.154Z,25.30
2022-12-20T17:42:31.381Z,25.70
2022-12-20T17:45:00.646Z,23.20
2022-12-20T17:47:29.474Z,24.00
2022-12-20T17:49:58.630Z,25.70
2022-12-20T17:52:39.091Z,26.90
2022-12-20T17:55:12.116Z,27.50
2022-12-20T17:57:41.009Z,29.60
2022-12-20T18:00:20.633Z,29.80
2022-12-20T18:05:18.837Z,29.30
2022-12-20T18:07:55.803Z,29.30
2022-12-20T18:10:24.520Z,26.00
2022-12-20T18:12:53.312Z,28.00
2022-12-20T18:15:22.594Z,25.20
2022-12-20T18:17:51.380Z,28.70
2022-12-20T18:20:20.070Z,25.50
2022-12-20T18:22:48.721Z,26.70
2022-12-20T18:25:21.143Z,29.40
2022-12-20T18:27:50.048Z,31.40
2022-12-20T18:30:19.619Z,29.50
2022-12-20T18:32:48.828Z,27.80
2022-12-20T18:35:17.713Z,27.70
2022-12-20T18:37:46.394Z,27.30
2022-12-20T18:40:15.286Z,28.00
2022-12-20T18:42:43.998Z,28.10
2022-12-20T18:45:12.763Z,31.80
2022-12-20T18:47:41.651Z,28.20
2022-12-20T18:50:13.491Z,31.60
2022-12-20T18:52:44.045Z,27.60
2022-12-20T18:55:15.998Z,28.20
2022-12-20T18:57:44.692Z,30.30
2022-12-20T19:00:15.200Z,29.30
2022-12-20T19:02:44.062Z,27.70
2022-12-20T19:05:13.013Z,28.20
2022-12-20T19:07:41.834Z,29.70
2022-12-20T19:10:11.108Z,26.30
2022-12-20T19:12:42.809Z,31.00
2022-12-20T19:15:11.948Z,27.60
2022-12-20T19:17:40.749Z,33.00
2022-12-20T19:20:10.727Z,32.80
2022-12-20T19:22:39.337Z,33.50
2022-12-20T19:25:09.374Z,27.50
2022-12-20T19:27:38.057Z,31.20
2022-12-20T19:30:08.174Z,33.00
2022-12-20T19:32:37.832Z,32.80
2022-12-20T19:35:37.425Z,36.60
2022-12-20T19:37:57.682Z,33.60
2022-12-20T19:42:55.017Z,35.30
2022-12-20T19:45:23.813Z,32.30
2022-12-20T19:47:55.649Z,36.90
2022-12-20T19:50:24.560Z,30.00
2022-12-20T19:52:53.653Z,35.10
2022-12-20T19:55:22.956Z,34.70
2022-12-20T19:57:51.544Z,34.10
2022-12-20T20:00:21.197Z,34.50
2022-12-20T20:02:50.176Z,34.40
2022-12-20T20:05:19.232Z,30.30
2022-12-20T20:07:48.144Z,33.80
2022-12-20T20:10:17.746Z,34.40
2022-12-20T20:12:46.515Z,32.00
2022-12-20T20:15:15.522Z,32.80
2022-12-20T20:17:45.033Z,30.20
2022-12-20T20:20:14.346Z,34.40
2022-12-20T20:22:43.127Z,32.90
2022-12-20T20:25:12.402Z,32.60
2022-12-20T20:27:41.396Z,32.90
2022-12-20T20:30:14.356Z,34.50
2022-12-20T20:32:43.033Z,32.50
2022-12-20T20:35:11.763Z,36.50
2022-12-20T20:37:40.397Z,35.60
2022-12-20T20:40:09.985Z,36.40
2022-12-20T20:42:38.717Z,35.80
2022-12-20T20:45:08.500Z,36.00
2022-12-20T20:50:06.673Z,31.80
2022-12-20T20:52:35.418Z,37.20
2022-12-20T20:55:05.700Z,39.70
2022-12-20T20:57:34.429Z,36.00
2022-12-20T21:00:04.756Z,34.60
2022-12-20T21:02:33.687Z,35.70
2022-12-20T21:07:51.362Z,34.70
2022-12-20T21:10:20.988Z,31.70
2022-12-20T21:15:23.590Z,33.50
2022-12-20T21:17:52.446Z,33.20
2022-12-20T21:20:25.876Z,32.30
2022-12-20T21:22:55.492Z,31.70
2022-12-20T21:25:24.404Z,33.10
2022-12-20T21:27:53.170Z,35.00
2022-12-20T21:30:21.967Z,30.90
2022-12-20T21:32:51.596Z,32.30
2022-12-20T21:37:48.832Z,36.50
2022-12-20T21:40:17.440Z,34.20
2022-12-20T21:42:46.014Z,33.10
2022-12-20T21:45:16.228Z,32.80
2022-12-20T21:47:45.232Z,27.40
2022-12-20T21:50:14.747Z,30.60
2022-12-20T21:52:43.501Z,27.80
2022-12-20T21:55:12.293Z,33.70
2022-12-20T21:57:41.517Z,29.30
2022-12-20T22:00:11.705Z,31.60
2022-12-20T22:02:40.671Z,30.70
2022-12-20T22:05:09.895Z,32.40
2022-12-20T22:07:38.636Z,26.60
2022-12-20T22:10:08.747Z,31.20
2022-12-20T22:12:37.697Z,31.60
2022-12-20T22:15:07.952Z,28.60
2022-12-20T22:17:36.839Z,26.70
2022-12-20T22:20:06.849Z,28.20
2022-12-20T22:22:35.525Z,30.80
2022-12-20T22:25:04.577Z,31.80
2022-12-20T22:27:33.289Z,30.40
2022-12-20T22:30:02.180Z,34.80
2022-12-20T22:32:32.561Z,28.80
2022-12-20T22:35:01.197Z,25.40
2022-12-20T22:37:29.980Z,29.80
2022-12-20T22:39:58.763Z,26.80
2022-12-20T22:42:27.656Z,28.60
2022-12-20T22:44:56.958Z,27.70
2022-12-20T22:47:25.815Z,28.00
2022-12-20T22:49:55.219Z,30.90
2022-12-20T22:52:23.848Z,27.90
2022-12-20T22:54:52.553Z,28.60
2022-12-20T22:57:21.195Z,34.70
2022-12-20T22:59:49.814Z,28.50
2022-12-20T23:02:18.676Z,25.70
2022-12-20T23:04:47.752Z,26.60
2022-12-20T23:07:17.152Z,29.60
2022-12-20T23:09:45.751Z,29.50
2022-12-20T23:12:33.410Z,29.20
2022-12-20T23:15:20.550Z,31.10
2022-12-20T23:17:49.497Z,30.80
2022-12-20T23:20:36.811Z,27.00
2022-12-20T23:23:05.449Z,30.60
2022-12-20T23:25:34.188Z,29.30
2022-12-20T23:28:03.256Z,29.20
2022-12-20T23:30:32.663Z,28.00
2022-12-20T23:33:01.365Z,28.60
2022-12-20T23:35:30.137Z,27.60
2022-12-20T23:37:59.409Z,26.10
2022-12-20T23:40:27.907Z,26.00
2022-12-20T23:42:56.524Z,26.30
2022-12-20T23:45:25.290Z,28.30
2022-12-20T23:47:53.990Z,27.60
2022-12-20T23:50:22.574Z,28.20
2022-12-20T23:52:51.157Z,30.00
2022-12-20T23:55:19.846Z,28.50
2022-12-20T23:57:48.706Z,30.70
